• Join FlightAware (Why Join?)
  • Login
  • US Flag 
08:49PM EST


 

Airport Tracker/Info


-or-


 

Live Flight TrackerFlight Track Log ✈ N246AE ✈ 15-Jun-2013 ✈ KTRI - KMGY

Flight Track Log - Related Links

Times and Time Zones

All times are in EDT time to prevent confusion due to time zone crossing. See the N246AE flight status page for this flight to view local times or setup timezone preferences in your user account.

Time Position Orientation Groundspeed Altitude Reporting Facility
EDT Latitude Longitude Course Direction KTS MPH feet Rate Location/Type
03:09PM 36.6737 -82.5202 338° Northwest  Level FlightAware Approximate
03:10PM 36.7161 -82.5414 338° Northwest  Level FlightAware Approximate
03:11PM 36.7585 -82.5625 338° Northwest  Level FlightAware Approximate
03:12PM 36.8009 -82.5837 338° Northwest  Level FlightAware Approximate
03:13PM 36.8433 -82.6050 338° Northwest  Level FlightAware Approximate
03:13PM 36.6097 -82.6175 334° Northwest 130 150 8,000  Level Indianapolis Center
03:14PM 36.8852 -82.6277 334° Northwest  Level FlightAware Approximate
03:14PM 36.6456 -82.6364 337° Northwest 138 159 8,100  Level Indianapolis Center
03:15PM 36.9264 -82.6524 334° Northwest  Level FlightAware Approximate
03:15PM 36.6875 -82.6572 338° Northwest 155 178 8,100  Level Indianapolis Center
03:16PM 36.9676 -82.6770 334° Northwest  Level FlightAware Approximate
03:16PM 36.7300 -82.6792 338° Northwest 163 188 8,000  Level Indianapolis Center
03:17PM 37.0088 -82.7017 334° Northwest  Level FlightAware Approximate
03:17PM 36.7725 -82.7014 337° Northwest 165 190 8,000  Level Indianapolis Center
03:18PM 37.0500 -82.7265 334° Northwest  Level FlightAware Approximate
03:18PM 36.8225 -82.7269 338° Northwest 166 191 8,000  Level Indianapolis Center
03:19PM 36.8653 -82.7494 337° Northwest 166 191 8,000  Level Indianapolis Center
03:20PM 36.9083 -82.7725 337° Northwest 169 194 8,000  Level Indianapolis Center
03:21PM 36.9506 -82.7939 338° Northwest 167 192 8,000  Level Indianapolis Center
03:22PM 37.0000 -82.8206 337° Northwest 167 192 8,100  Climbing Indianapolis Center
03:23PM 37.0433 -82.8428 338° Northwest 168 193 8,100  Level Indianapolis Center
03:24PM 37.0867 -82.8653 338° Northwest 168 193 8,100 -60 Level Indianapolis Center
03:25PM 37.1294 -82.8878 337° Northwest 168 193 8,000 -60 Descending Indianapolis Center
03:26PM 37.1731 -82.9106 337° Northwest 168 193 8,000  Level Indianapolis Center
03:27PM 37.2233 -82.9369 337° Northwest 168 193 8,100  Climbing Indianapolis Center
03:28PM 37.2656 -82.9594 337° Northwest 166 191 8,100  Level Indianapolis Center
03:29PM 37.3083 -82.9806 339° North 165 190 8,100  Level Indianapolis Center
03:31PM 37.3506 -83.0028 337° Northwest 164 189 8,100 -60 Level Indianapolis Center
03:32PM 37.3925 -83.0244 338° Northwest 164 189 8,000 -60 Descending Indianapolis Center
03:33PM 37.4350 -83.0475 337° Northwest 165 190 8,000  Level Indianapolis Center
03:34PM 37.4781 -83.0697 338° Northwest 167 192 8,000  Level Indianapolis Center
03:35PM 37.5272 -83.0964 337° Northwest 164 189 8,100  Climbing Indianapolis Center
03:36PM 37.5689 -83.1186 337° Northwest 164 189 8,000  Descending Indianapolis Center
03:37PM 37.6108 -83.1403 338° Northwest 163 188 8,100  Climbing Indianapolis Center
03:38PM 37.6536 -83.1625 338° Northwest 164 189 8,000  Descending Indianapolis Center
03:39PM 37.6956 -83.1847 337° Northwest 164 189 8,100  Climbing Indianapolis Center
03:40PM 37.7378 -83.2092 335° Northwest 165 190 8,000  Descending Indianapolis Center
03:41PM 37.7869 -83.2353 337° Northwest 165 190 8,100  Climbing Indianapolis Center
03:42PM 37.8300 -83.2561 339° North 165 190 8,100  Level Indianapolis Center
03:43PM 37.8711 -83.2803 335° Northwest 163 188 8,100  Level Indianapolis Center
03:44PM 37.9136 -83.3025 338° Northwest 164 189 8,100  Level Indianapolis Center
03:45PM 37.9567 -83.3250 338° Northwest 166 191 8,100  Level Indianapolis Center
03:46PM 37.9989 -83.3489 336° Northwest 166 191 8,100  Level Indianapolis Center
03:47PM 38.0486 -83.3739 338° Northwest 164 189 8,100  Level Indianapolis Center
03:48PM 38.0906 -83.3981 336° Northwest 165 190 8,100 -60 Level Indianapolis Center
03:49PM 38.1333 -83.4203 338° Northwest 165 190 8,000 -60 Descending Indianapolis Center
03:50PM 38.1753 -83.4433 337° Northwest 163 188 8,000  Level Indianapolis Center
03:51PM 38.2178 -83.4650 338° Northwest 164 189 8,000  Level Indianapolis Center
03:52PM 38.2600 -83.4894 336° Northwest 166 191 8,000  Level Indianapolis Center
03:53PM 38.3025 -83.5114 338° Northwest 166 191 8,000  Level Indianapolis Center
03:54PM 38.3517 -83.5400 335° Northwest 164 189 8,000  Level Indianapolis Center
03:55PM 38.3942 -83.5625 337° Northwest 165 190 8,000  Level Indianapolis Center
03:56PM 38.4353 -83.5839 338° Northwest 161 185 8,000  Level Indianapolis Center
03:57PM 38.4767 -83.6078 336° Northwest 162 186 8,000  Level Indianapolis Center
03:58PM 38.5181 -83.6289 338° Northwest 162 186 8,000  Level Indianapolis Center
03:59PM 38.5597 -83.6533 335° Northwest 164 189 8,000  Level Indianapolis Center
04:00PM 38.6089 -83.6786 338° Northwest 162 186 8,000  Level Indianapolis Center
04:01PM 38.6489 -83.7006 337° Northwest 160 184 8,000  Level Indianapolis Center
04:02PM 38.6900 -83.7256 335° Northwest 161 185 8,000  Level Indianapolis Center
04:03PM 38.7308 -83.7469 338° Northwest 160 184 8,000  Level Indianapolis Center
04:04PM 38.7703 -83.7706 335° Northwest 157 181 8,000  Level Indianapolis Center
04:05PM 38.8094 -83.7892 340° North 152 175 8,000  Level Indianapolis Center
04:07PM 38.8503 -83.8114 337° Northwest 155 178 8,000  Level Indianapolis Center
04:08PM 38.8914 -83.8336 337° Northwest 157 181 8,000  Level Indianapolis Center
04:09PM 38.9325 -83.8581 335° Northwest 160 184 8,000  Level Indianapolis Center
04:10PM 38.9736 -83.8808 337° Northwest 160 184 8,000  Level Indianapolis Center
04:11PM 39.0219 -83.9069 337° Northwest 160 184 8,000 -180 Level Indianapolis Center
04:11PM 39.0497 -83.9231 336° Northwest 162 186 7,700 -540 Descending Indianapolis Center
04:12PM 39.0656 -83.9314 338° Northwest 167 192 7,500 -720 Descending Indianapolis Center
04:12PM 39.0819 -83.9406 337° Northwest 173 199 7,200 -840 Descending Indianapolis Center
04:13PM 39.1108 -83.9553 338° Northwest 173 199 6,700 -720 Descending Indianapolis Center
04:13PM 39.1261 -83.9650 334° Northwest 179 206 6,500 -720 Descending Indianapolis Center
04:14PM 39.1572 -83.9828 336° Northwest 178 205 6,000 -840 Descending Indianapolis Center
04:14PM 39.1722 -83.9925 333° Northwest 177 204 5,700 -720 Descending Indianapolis Center
04:15PM 39.2039 -84.0083 339° North 180 207 5,300 -540 Descending Indianapolis Center
04:15PM 39.2203 -84.0200 331° Northwest 177 204 5,200 -300 Descending Indianapolis Center
04:16PM 39.2408 -84.0439 318° Northwest 171 197 5,000 -240 Descending Indianapolis Center
04:16PM 39.2531 -84.0594 315° West 156 180 5,000  Level Indianapolis Center
04:17PM 39.2731 -84.0783 324° Northwest 157 181 5,000  Level Indianapolis Center
04:17PM 39.2839 -84.0931 314° West 148 170 5,000 60 Level Indianapolis Center
04:18PM 39.3050 -84.1133 323° Northwest 152 175 5,100  Climbing Indianapolis Center
04:18PM 39.3167 -84.1269 318° Northwest 147 169 5,000 -120 Descending Indianapolis Center
04:19PM 39.3381 -84.1472 324° Northwest 150 173 5,000  Level Indianapolis Center
04:19PM 39.3533 -84.1669 315° West 154 177 5,000  Level Indianapolis Center
04:20PM 39.3714 -84.1831 325° Northwest 152 175 5,000 60 Level Indianapolis Center
04:20PM 39.3883 -84.2011 321° Northwest 156 180 5,100  Climbing Indianapolis Center
04:21PM 39.4128 -84.1997 North 164 189 5,000  Descending Indianapolis Center
04:21PM 39.4367 -84.2019 356° North 160 184 5,100 -120 Climbing Indianapolis Center
04:22PM 39.4564 -84.2019 360° North 158 182 4,900 -600 Descending Indianapolis Center
04:22PM 39.4761 -84.2072 348° North 155 178 4,600 -780 Descending Indianapolis Center
04:23PM 39.5089 -84.2092 357° North 158 182 4,100 -720 Descending Indianapolis Center
04:25PM 39.5799 -84.2150 339° North  Level FlightAware Approximate
04:32PM 39.5833 -84.2167 339° North  Level FlightAware Approximate
04:33PM 39.5890 -84.2249 339° North  Level Estimated
04:34PM 39.5890 -84.2249 339° North  Level Estimated